Time;durP1;ratioP1;P1;durP2;ratioP2;P2;SDS_P1;SDS_P2;PMS_P1;PMS_P2;Temp;Humidity;BMP_temperature;BMP_pressure;BME280_temperature;BME280_humidity;BME280_pressure;Samples;Min_cycle;Max_cycle;Signal;HPM_P1;HPM_P2
2021/07/18 00:02:13;;;;;;;8.87;3.43;;;;;;;;;;3589225;40;20060;-67
2021/07/18 00:04:39;;;;;;;14.97;3.83;;;;;;;;;;3589583;40;20244;-66
2021/07/18 00:07:04;;;;;;;8.55;3.60;;;;;;;;;;3589264;39;20020;-67
2021/07/18 00:09:29;;;;;;;13.65;4.50;;;;;;;;;;3589553;39;20021;-66
2021/07/18 00:11:55;;;;;;;9.93;4.03;;;;;;;;;;3589765;40;20120;-66
2021/07/18 00:14:20;;;;;;;8.23;3.83;;;;;;;;;;3590733;40;20036;-59
2021/07/18 00:16:45;;;;;;;14.40;3.97;;;;;;;;;;3589552;40;20044;-59
2021/07/18 00:19:10;;;;;;;5.23;3.50;;;;;;;;;;3590475;40;20056;-59
2021/07/18 00:21:35;;;;;;;7.80;4.83;;;;;;;;;;3590819;40;20310;-67
2021/07/18 00:24:01;;;;;;;11.07;5.27;;;;;;;;;;3590666;40;20254;-67
2021/07/18 00:26:26;;;;;;;14.10;4.60;;;;;;;;;;3591254;40;20102;-67
2021/07/18 00:28:51;;;;;;;17.63;5.17;;;;;;;;;;3590641;40;20320;-67
2021/07/18 00:31:16;;;;;;;12.70;4.83;;;;;;;;;;3591598;40;20020;-66
2021/07/18 00:33:41;;;;;;;12.00;5.33;;;;;;;;;;3589968;40;20032;-59
2021/07/18 00:36:07;;;;;;;7.60;4.77;;;;;;;;;;3589795;40;20758;-59
2021/07/18 00:38:32;;;;;;;10.77;4.07;;;;;;;;;;3590829;40;20025;-59
2021/07/18 00:40:57;;;;;;;12.53;4.30;;;;;;;;;;3590293;40;20023;-59
2021/07/18 00:43:22;;;;;;;7.67;3.60;;;;;;;;;;3591628;40;20024;-59
2021/07/18 00:45:47;;;;;;;12.03;3.53;;;;;;;;;;3590532;39;20031;-59
2021/07/18 00:48:13;;;;;;;8.40;3.57;;;;;;;;;;3590692;40;20020;-60
2021/07/18 00:50:43;;;;;;;11.17;3.30;;;;;;;;;;3590429;40;20020;-59
2021/07/18 00:53:08;;;;;;;15.27;3.05;;;;;;;;;;3591446;39;20020;-59
2021/07/18 00:55:38;;;;;;;8.97;3.47;;;;;;;;;;3591573;40;20021;-59
2021/07/18 00:58:03;;;;;;;13.43;3.72;;;;;;;;;;3590553;39;20030;-59
2021/07/18 01:00:28;;;;;;;10.17;3.10;;;;;;;;;;3589829;40;20028;-59
2021/07/18 01:02:53;;;;;;;7.33;3.33;;;;;;;;;;3589812;40;20340;-59
2021/07/18 01:05:19;;;;;;;10.60;3.30;;;;;;;;;;3589998;39;20389;-59
2021/07/18 01:07:44;;;;;;;9.70;3.20;;;;;;;;;;3590204;40;20413;-59
2021/07/18 01:10:09;;;;;;;9.37;3.00;;;;;;;;;;3589287;40;20739;-59
2021/07/18 01:12:34;;;;;;;10.63;3.53;;;;;;;;;;3590900;40;20732;-59
2021/07/18 01:14:59;;;;;;;9.13;3.17;;;;;;;;;;3589315;40;20032;-59
2021/07/18 01:17:25;;;;;;;10.80;3.27;;;;;;;;;;3590685;40;20050;-59
2021/07/18 01:19:51;;;;;;;6.10;2.90;;;;;;;;;;3588928;40;20029;-59
2021/07/18 01:22:16;;;;;;;14.70;3.38;;;;;;;;;;3590870;39;20273;-59
2021/07/18 01:24:41;;;;;;;11.87;3.40;;;;;;;;;;3590925;40;20043;-59
2021/07/18 01:27:06;;;;;;;9.27;3.20;;;;;;;;;;3590512;40;20027;-59
2021/07/18 01:29:31;;;;;;;7.60;3.40;;;;;;;;;;3590912;40;20025;-59
2021/07/18 01:31:57;;;;;;;7.17;2.90;;;;;;;;;;3590102;40;20249;-58
2021/07/18 01:34:22;;;;;;;9.57;3.30;;;;;;;;;;3590849;40;20250;-59
2021/07/18 01:36:47;;;;;;;8.97;3.30;;;;;;;;;;3590825;40;20781;-59
2021/07/18 01:39:12;;;;;;;11.17;3.17;;;;;;;;;;3590651;40;20025;-59
2021/07/18 01:41:38;;;;;;;12.30;3.13;;;;;;;;;;3591172;40;20380;-61
2021/07/18 01:44:03;;;;;;;13.43;3.55;;;;;;;;;;3590296;40;20272;-59
2021/07/18 01:46:28;;;;;;;11.87;3.10;;;;;;;;;;3590840;40;20074;-59
2021/07/18 01:48:53;;;;;;;11.33;3.23;;;;;;;;;;3590716;40;20076;-62
2021/07/18 01:51:18;;;;;;;12.90;3.42;;;;;;;;;;3588985;40;20031;-61
2021/07/18 01:53:44;;;;;;;8.90;2.83;;;;;;;;;;3588902;40;20117;-59
2021/07/18 01:56:09;;;;;;;11.20;3.10;;;;;;;;;;3589855;40;20034;-59
2021/07/18 01:58:34;;;;;;;8.30;3.20;;;;;;;;;;3588983;39;20036;-59
2021/07/18 02:00:59;;;;;;;7.87;2.97;;;;;;;;;;3590819;40;20677;-59
2021/07/18 02:03:24;;;;;;;9.93;3.33;;;;;;;;;;3591287;40;20039;-59
2021/07/18 02:05:50;;;;;;;8.43;3.10;;;;;;;;;;3590657;40;20032;-59
2021/07/18 02:08:15;;;;;;;8.10;3.22;;;;;;;;;;3589769;40;20297;-60
2021/07/18 02:10:41;;;;;;;6.68;3.13;;;;;;;;;;3591225;40;20016;-60
2021/07/18 02:13:06;;;;;;;8.40;3.20;;;;;;;;;;3591143;39;20035;-59
2021/07/18 02:15:31;;;;;;;8.90;3.50;;;;;;;;;;3590982;40;20105;-59
2021/07/18 02:17:56;;;;;;;6.17;3.13;;;;;;;;;;3591183;40;20274;-59
2021/07/18 02:20:23;;;;;;;10.80;3.50;;;;;;;;;;3590174;40;20377;-59
2021/07/18 02:22:48;;;;;;;8.95;3.17;;;;;;;;;;3591091;39;20039;-61
2021/07/18 02:25:13;;;;;;;8.18;2.65;;;;;;;;;;3591511;40;20028;-59
2021/07/18 02:27:39;;;;;;;13.17;3.00;;;;;;;;;;3591030;40;20059;-59
2021/07/18 02:30:04;;;;;;;6.33;3.00;;;;;;;;;;3590096;40;20363;-60
2021/07/18 02:32:29;;;;;;;4.80;2.90;;;;;;;;;;3589537;40;20035;-59
2021/07/18 02:34:54;;;;;;;8.43;3.30;;;;;;;;;;3591648;40;20043;-59
2021/07/18 02:37:19;;;;;;;7.43;2.87;;;;;;;;;;3592186;40;20050;-59
2021/07/18 02:39:44;;;;;;;7.70;2.92;;;;;;;;;;3591973;40;20072;-59
2021/07/18 02:42:10;;;;;;;8.37;3.17;;;;;;;;;;3592247;40;20043;-59
2021/07/18 02:44:35;;;;;;;12.03;3.50;;;;;;;;;;3591941;40;20048;-59
2021/07/18 02:47:00;;;;;;;7.20;3.87;;;;;;;;;;3591618;40;20129;-59
2021/07/18 02:49:25;;;;;;;10.67;4.10;;;;;;;;;;3592236;40;20736;-59
2021/07/18 02:51:50;;;;;;;9.07;4.20;;;;;;;;;;3591806;40;20032;-60
2021/07/18 02:54:16;;;;;;;10.63;3.30;;;;;;;;;;3592026;39;20028;-59
2021/07/18 02:56:41;;;;;;;14.00;3.43;;;;;;;;;;3592049;40;20043;-59
2021/07/18 02:59:06;;;;;;;8.40;3.00;;;;;;;;;;3591744;40;20306;-58
2021/07/18 03:01:31;;;;;;;9.00;3.58;;;;;;;;;;3590301;40;20043;-59
2021/07/18 03:03:57;;;;;;;7.30;3.03;;;;;;;;;;3590228;40;20024;-58
2021/07/18 03:06:22;;;;;;;9.50;3.00;;;;;;;;;;3591790;40;20035;-58
2021/07/18 03:08:47;;;;;;;16.90;3.23;;;;;;;;;;3591133;39;20886;-58
2021/07/18 03:11:12;;;;;;;14.63;3.30;;;;;;;;;;3591595;40;20708;-58
2021/07/18 03:13:38;;;;;;;8.25;3.45;;;;;;;;;;3582188;40;20270;-58
2021/07/18 03:16:03;;;;;;;9.10;2.95;;;;;;;;;;3591173;40;20020;-58
2021/07/18 03:18:28;;;;;;;8.10;3.83;;;;;;;;;;3591663;40;20031;-59
2021/07/18 03:20:53;;;;;;;16.77;3.80;;;;;;;;;;3589592;40;20379;-59
2021/07/18 03:23:19;;;;;;;13.37;3.40;;;;;;;;;;3591611;40;20024;-59
2021/07/18 03:25:44;;;;;;;10.85;3.33;;;;;;;;;;3591149;40;20017;-59
2021/07/18 03:28:09;;;;;;;9.30;3.23;;;;;;;;;;3591029;40;20032;-59
2021/07/18 03:30:34;;;;;;;12.70;3.57;;;;;;;;;;3589684;40;20171;-59
2021/07/18 03:33:00;;;;;;;13.43;3.13;;;;;;;;;;3589571;40;20035;-59
2021/07/18 03:35:25;;;;;;;8.85;3.20;;;;;;;;;;3589907;39;20132;-59
2021/07/18 03:37:50;;;;;;;7.57;3.42;;;;;;;;;;3589184;40;20105;-59
2021/07/18 03:40:16;;;;;;;7.53;2.97;;;;;;;;;;3589935;40;20074;-67
2021/07/18 03:42:41;;;;;;;8.50;3.40;;;;;;;;;;3590645;39;20028;-66
2021/07/18 03:45:06;;;;;;;10.93;3.00;;;;;;;;;;3590021;40;20102;-67
2021/07/18 03:47:31;;;;;;;5.83;3.23;;;;;;;;;;3591616;40;20507;-67
2021/07/18 03:49:57;;;;;;;9.13;3.37;;;;;;;;;;3591124;40;20567;-67
2021/07/18 03:52:22;;;;;;;7.55;3.03;;;;;;;;;;3590597;40;20020;-67
2021/07/18 03:54:47;;;;;;;10.03;2.60;;;;;;;;;;3590773;40;20047;-66
2021/07/18 03:57:12;;;;;;;7.20;3.20;;;;;;;;;;3591013;40;20073;-66
2021/07/18 03:59:37;;;;;;;8.83;2.97;;;;;;;;;;3591063;40;20047;-66
2021/07/18 04:02:02;;;;;;;6.37;3.33;;;;;;;;;;3590884;40;20056;-66
2021/07/18 04:04:28;;;;;;;6.03;2.93;;;;;;;;;;3589900;40;20040;-66
2021/07/18 04:06:53;;;;;;;9.88;3.42;;;;;;;;;;3589996;40;20908;-66
2021/07/18 04:09:18;;;;;;;10.93;3.23;;;;;;;;;;3590900;40;20060;-66
2021/07/18 04:11:44;;;;;;;8.73;3.17;;;;;;;;;;3590839;40;20035;-67
2021/07/18 04:14:09;;;;;;;8.80;3.10;;;;;;;;;;3590157;40;20025;-66
2021/07/18 04:16:34;;;;;;;7.93;3.03;;;;;;;;;;3590631;40;20632;-66
2021/07/18 04:18:59;;;;;;;5.67;2.97;;;;;;;;;;3590463;40;20040;-66
2021/07/18 04:21:24;;;;;;;8.17;3.30;;;;;;;;;;3589720;39;20028;-67
2021/07/18 04:23:51;;;;;;;4.83;2.90;;;;;;;;;;3590219;40;20294;-66
2021/07/18 04:26:16;;;;;;;14.60;2.97;;;;;;;;;;3590735;39;20048;-66
2021/07/18 04:28:41;;;;;;;7.27;2.80;;;;;;;;;;3590693;40;20087;-66
2021/07/18 04:31:07;;;;;;;6.30;2.97;;;;;;;;;;3590316;40;20024;-67
2021/07/18 04:33:32;;;;;;;5.27;3.23;;;;;;;;;;3590893;40;20129;-66
2021/07/18 04:35:57;;;;;;;5.43;2.83;;;;;;;;;;3588915;40;20058;-67
2021/07/18 04:38:22;;;;;;;6.15;3.03;;;;;;;;;;3590602;39;20651;-66
2021/07/18 04:40:47;;;;;;;10.10;2.90;;;;;;;;;;3590347;40;20134;-66
2021/07/18 04:43:13;;;;;;;9.50;2.47;;;;;;;;;;3588950;40;20040;-59
2021/07/18 04:45:38;;;;;;;9.90;2.95;;;;;;;;;;3590211;40;20065;-59
2021/07/18 04:48:03;;;;;;;10.98;3.53;;;;;;;;;;3590133;40;20039;-58
2021/07/18 04:50:29;;;;;;;8.80;2.63;;;;;;;;;;3589897;40;20117;-59
2021/07/18 04:52:54;;;;;;;12.63;2.83;;;;;;;;;;3590140;40;20612;-59
2021/07/18 04:55:19;;;;;;;10.50;2.90;;;;;;;;;;3590151;40;20020;-59
2021/07/18 04:57:44;;;;;;;6.10;2.60;;;;;;;;;;3590181;40;20048;-59
2021/07/18 05:00:09;;;;;;;10.13;3.53;;;;;;;;;;3590073;40;20121;-60
2021/07/18 05:02:35;;;;;;;7.10;2.70;;;;;;;;;;3588418;40;20271;-59
2021/07/18 05:05:00;;;;;;;7.57;2.77;;;;;;;;;;3590365;40;20267;-59
2021/07/18 05:07:25;;;;;;;7.43;2.97;;;;;;;;;;3590280;40;20044;-59
2021/07/18 05:09:50;;;;;;;6.97;2.90;;;;;;;;;;3590182;40;20121;-59
2021/07/18 05:12:16;;;;;;;4.32;2.42;;;;;;;;;;3591311;39;20036;-59
2021/07/18 05:14:42;;;;;;;7.93;3.10;;;;;;;;;;3590488;40;20040;-59
2021/07/18 05:17:07;;;;;;;11.63;2.85;;;;;;;;;;3589284;40;20302;-59
2021/07/18 05:19:32;;;;;;;11.13;2.77;;;;;;;;;;3590240;40;20910;-60
2021/07/18 05:21:58;;;;;;;10.80;2.90;;;;;;;;;;3589894;40;20058;-59
2021/07/18 05:24:23;;;;;;;5.90;2.93;;;;;;;;;;3590583;40;20034;-59
2021/07/18 05:26:48;;;;;;;12.37;3.13;;;;;;;;;;3590168;40;20125;-59
2021/07/18 05:29:13;;;;;;;7.30;3.60;;;;;;;;;;3590809;40;20086;-59
2021/07/18 05:31:38;;;;;;;8.00;3.10;;;;;;;;;;3590302;40;20035;-59
2021/07/18 05:34:04;;;;;;;8.47;2.47;;;;;;;;;;3590542;39;20358;-59
2021/07/18 05:36:29;;;;;;;7.10;3.23;;;;;;;;;;3591539;40;20036;-59
2021/07/18 05:38:54;;;;;;;8.83;2.40;;;;;;;;;;3591545;40;20327;-59
2021/07/18 05:41:19;;;;;;;9.75;2.75;;;;;;;;;;3591699;40;20036;-58
2021/07/18 05:43:44;;;;;;;8.57;2.73;;;;;;;;;;3591895;40;20718;-60
2021/07/18 05:46:13;;;;;;;8.32;3.13;;;;;;;;;;3591436;40;20302;-60
2021/07/18 05:48:38;;;;;;;6.95;2.85;;;;;;;;;;3591467;40;20028;-60
2021/07/18 05:51:03;;;;;;;11.00;3.53;;;;;;;;;;3591280;40;20020;-60
2021/07/18 05:53:28;;;;;;;8.80;3.13;;;;;;;;;;3592119;40;20066;-59
2021/07/18 05:55:53;;;;;;;6.70;2.53;;;;;;;;;;3590623;40;20074;-59
2021/07/18 05:58:19;;;;;;;7.87;2.97;;;;;;;;;;3592140;40;20649;-59
2021/07/18 06:00:44;;;;;;;6.10;2.85;;;;;;;;;;3590580;40;20262;-59
2021/07/18 06:03:09;;;;;;;8.40;2.90;;;;;;;;;;3591893;40;20127;-60
2021/07/18 06:05:35;;;;;;;17.37;2.77;;;;;;;;;;3591852;40;20035;-59
2021/07/18 06:08:00;;;;;;;8.82;2.88;;;;;;;;;;3581988;40;20389;-59
2021/07/18 06:10:25;;;;;;;6.73;2.90;;;;;;;;;;3589168;40;20024;-60
2021/07/18 06:12:50;;;;;;;9.70;2.87;;;;;;;;;;3589773;40;20594;-59
2021/07/18 06:15:16;;;;;;;8.77;2.92;;;;;;;;;;3590403;40;20130;-60
2021/07/18 06:17:41;;;;;;;9.35;2.53;;;;;;;;;;3590588;39;20040;-59
2021/07/18 06:20:07;;;;;;;8.07;2.20;;;;;;;;;;3590073;40;20075;-59
2021/07/18 06:22:32;;;;;;;7.72;2.70;;;;;;;;;;3589252;40;20274;-59
2021/07/18 06:24:57;;;;;;;10.02;2.67;;;;;;;;;;3590157;40;20038;-60
2021/07/18 06:27:22;;;;;;;7.27;2.57;;;;;;;;;;3588403;40;20024;-59
2021/07/18 06:29:48;;;;;;;5.82;2.38;;;;;;;;;;3590444;40;20039;-60
2021/07/18 06:32:13;;;;;;;7.53;2.40;;;;;;;;;;3590753;40;20134;-60
2021/07/18 06:34:38;;;;;;;6.83;2.60;;;;;;;;;;3588210;40;20029;-59
2021/07/18 06:37:03;;;;;;;8.17;2.40;;;;;;;;;;3591122;40;20355;-59
2021/07/18 06:39:28;;;;;;;10.73;3.30;;;;;;;;;;3591230;40;20032;-60
2021/07/18 06:41:54;;;;;;;10.40;3.40;;;;;;;;;;3588778;40;20056;-60
2021/07/18 06:44:19;;;;;;;4.67;2.30;;;;;;;;;;3590556;39;20039;-60
2021/07/18 06:46:44;;;;;;;8.05;2.50;;;;;;;;;;3589697;40;20109;-60
2021/07/18 06:49:09;;;;;;;4.10;2.70;;;;;;;;;;3589126;40;20032;-59
2021/07/18 06:51:35;;;;;;;8.17;2.50;;;;;;;;;;3590439;40;20122;-60
2021/07/18 06:54:00;;;;;;;7.57;2.10;;;;;;;;;;3590442;40;20046;-59
2021/07/18 06:56:25;;;;;;;4.00;2.00;;;;;;;;;;3590477;40;20059;-59
2021/07/18 06:58:50;;;;;;;11.00;2.20;;;;;;;;;;3589325;40;20024;-59
2021/07/18 07:01:16;;;;;;;6.83;2.07;;;;;;;;;;3590890;40;20032;-67
2021/07/18 07:03:41;;;;;;;3.80;2.20;;;;;;;;;;3591388;40;20606;-67
2021/07/18 07:06:06;;;;;;;8.30;1.97;;;;;;;;;;3591082;40;20036;-67
2021/07/18 07:08:31;;;;;;;9.67;3.50;;;;;;;;;;3590704;40;20579;-60
2021/07/18 07:10:56;;;;;;;9.30;2.00;;;;;;;;;;3589958;40;20032;-67
2021/07/18 07:13:22;;;;;;;6.33;1.70;;;;;;;;;;3590257;40;20409;-68
2021/07/18 07:15:47;;;;;;;3.73;1.93;;;;;;;;;;3591606;40;20032;-68
2021/07/18 07:18:12;;;;;;;5.93;1.70;;;;;;;;;;3590040;40;20031;-65
2021/07/18 07:20:37;;;;;;;7.93;1.90;;;;;;;;;;3591784;40;20066;-67
2021/07/18 07:23:02;;;;;;;4.80;2.10;;;;;;;;;;3591618;40;20032;-67
2021/07/18 07:25:28;;;;;;;4.93;1.70;;;;;;;;;;3590530;40;20412;-67
2021/07/18 07:27:53;;;;;;;4.70;1.90;;;;;;;;;;3591544;40;20024;-67
2021/07/18 07:30:18;;;;;;;4.67;1.57;;;;;;;;;;3591863;40;20277;-67
2021/07/18 07:32:44;;;;;;;3.20;1.40;;;;;;;;;;3591542;39;20044;-67
2021/07/18 07:35:09;;;;;;;5.20;1.60;;;;;;;;;;3591749;39;20044;-67
2021/07/18 07:37:35;;;;;;;6.07;1.87;;;;;;;;;;3592123;40;20322;-67
2021/07/18 07:40:00;;;;;;;4.90;1.60;;;;;;;;;;3591757;39;20128;-67
2021/07/18 07:42:25;;;;;;;3.20;1.70;;;;;;;;;;3591708;40;20046;-67
2021/07/18 07:44:52;;;;;;;5.43;1.43;;;;;;;;;;3591337;40;20389;-67
2021/07/18 07:47:17;;;;;;;3.75;1.63;;;;;;;;;;3591086;39;20024;-68
2021/07/18 07:49:45;;;;;;;4.93;1.93;;;;;;;;;;3590856;40;20701;-67
2021/07/18 07:52:10;;;;;;;6.40;1.50;;;;;;;;;;3588464;40;20382;-67
2021/07/18 07:54:36;;;;;;;4.13;1.42;;;;;;;;;;3591284;39;20040;-67
2021/07/18 07:57:01;;;;;;;5.10;2.10;;;;;;;;;;3589737;39;20028;-67
2021/07/18 07:59:26;;;;;;;4.87;1.50;;;;;;;;;;3590740;40;20113;-67
2021/07/18 08:01:51;;;;;;;8.97;2.77;;;;;;;;;;3588681;40;20802;-59
2021/07/18 08:04:16;;;;;;;2.93;1.50;;;;;;;;;;3590372;40;20796;-60
2021/07/18 08:06:42;;;;;;;3.87;1.60;;;;;;;;;;3588946;40;20039;-59
2021/07/18 08:09:07;;;;;;;4.73;1.57;;;;;;;;;;3590336;40;21050;-59
2021/07/18 08:11:32;;;;;;;3.67;1.70;;;;;;;;;;3580586;40;20028;-59
2021/07/18 08:13:58;;;;;;;6.43;1.60;;;;;;;;;;3588186;40;20032;-60
2021/07/18 08:16:23;;;;;;;5.25;1.30;;;;;;;;;;3588870;40;20262;-67
2021/07/18 08:18:48;;;;;;;2.63;1.30;;;;;;;;;;3589937;40;20406;-67
2021/07/18 08:21:13;;;;;;;3.33;1.50;;;;;;;;;;3589979;40;20039;-67
2021/07/18 08:23:39;;;;;;;2.60;1.50;;;;;;;;;;3588840;40;20830;-67
2021/07/18 08:26:04;;;;;;;2.17;1.20;;;;;;;;;;3590011;40;20262;-66
2021/07/18 08:28:29;;;;;;;4.33;1.57;;;;;;;;;;3588923;40;20247;-67
2021/07/18 08:30:54;;;;;;;3.30;1.40;;;;;;;;;;3589632;40;20052;-67
2021/07/18 08:33:20;;;;;;;2.83;1.40;;;;;;;;;;3589546;40;20345;-67
2021/07/18 08:35:45;;;;;;;3.00;1.50;;;;;;;;;;3589540;40;20109;-66
2021/07/18 08:38:10;;;;;;;4.50;1.50;;;;;;;;;;3589527;40;20048;-68
2021/07/18 08:40:35;;;;;;;8.97;4.53;;;;;;;;;;3579963;40;20040;-65
2021/07/18 08:43:01;;;;;;;11.38;4.90;;;;;;;;;;3579222;40;20467;-65
2021/07/18 08:45:26;;;;;;;6.43;2.20;;;;;;;;;;3589158;40;20626;-66
2021/07/18 08:47:51;;;;;;;9.53;3.87;;;;;;;;;;3588740;40;20698;-65
2021/07/18 08:50:17;;;;;;;12.05;6.93;;;;;;;;;;3589446;40;20041;-66
2021/07/18 08:52:42;;;;;;;3.37;1.40;;;;;;;;;;3589198;40;20121;-65
2021/07/18 08:55:08;;;;;;;6.07;1.57;;;;;;;;;;3588040;40;20036;-65
2021/07/18 08:57:34;;;;;;;6.05;1.50;;;;;;;;;;3575532;40;20067;-65
2021/07/18 08:59:59;;;;;;;1.83;1.13;;;;;;;;;;3588342;40;20624;-67
2021/07/18 09:02:24;;;;;;;3.55;1.27;;;;;;;;;;3579855;40;20278;-65
2021/07/18 09:04:50;;;;;;;5.50;1.40;;;;;;;;;;3589602;40;20024;-65
2021/07/18 09:07:18;;;;;;;3.90;1.70;;;;;;;;;;3590466;39;20269;-65
2021/07/18 09:09:43;;;;;;;11.63;4.20;;;;;;;;;;3591437;40;20027;-65
2021/07/18 09:12:08;;;;;;;4.53;1.70;;;;;;;;;;3589519;40;20036;-64
2021/07/18 09:14:33;;;;;;;4.40;1.20;;;;;;;;;;3591362;40;20032;-65
2021/07/18 09:16:59;;;;;;;7.97;1.37;;;;;;;;;;3589514;40;20035;-65
2021/07/18 09:19:24;;;;;;;3.13;1.10;;;;;;;;;;3591058;40;20036;-65
2021/07/18 09:21:49;;;;;;;3.20;1.00;;;;;;;;;;3591285;40;20481;-65
2021/07/18 09:24:14;;;;;;;3.90;1.10;;;;;;;;;;3591348;40;20413;-65
2021/07/18 09:26:40;;;;;;;2.93;1.50;;;;;;;;;;3590343;40;20843;-65
2021/07/18 09:29:05;;;;;;;1.50;0.93;;;;;;;;;;3591360;40;20319;-62
2021/07/18 09:31:30;;;;;;;4.13;1.10;;;;;;;;;;3591619;40;20036;-63
2021/07/18 09:33:55;;;;;;;4.33;2.17;;;;;;;;;;3591048;40;20570;-61
2021/07/18 09:36:20;;;;;;;14.93;2.10;;;;;;;;;;3590869;40;20044;-62
2021/07/18 09:38:45;;;;;;;8.63;3.10;;;;;;;;;;3589740;40;20309;-62
2021/07/18 09:41:11;;;;;;;6.50;1.10;;;;;;;;;;3589610;40;20286;-62
2021/07/18 09:43:36;;;;;;;5.23;2.47;;;;;;;;;;3591227;40;20032;-62
2021/07/18 09:46:01;;;;;;;6.40;2.37;;;;;;;;;;3590417;40;20109;-62
2021/07/18 09:48:26;;;;;;;4.23;1.47;;;;;;;;;;3590424;40;20039;-62
2021/07/18 09:50:52;;;;;;;3.13;1.40;;;;;;;;;;3591767;40;20067;-62
2021/07/18 09:53:17;;;;;;;2.83;1.30;;;;;;;;;;3590148;40;20052;-61
2021/07/18 09:55:42;;;;;;;3.53;1.30;;;;;;;;;;3591161;40;20306;-62
2021/07/18 09:58:07;;;;;;;2.47;1.07;;;;;;;;;;3591107;40;20032;-62
2021/07/18 10:00:32;;;;;;;7.83;1.87;;;;;;;;;;3591217;40;20379;-62
2021/07/18 10:02:58;;;;;;;3.13;1.20;;;;;;;;;;3590909;40;20024;-62
2021/07/18 10:05:23;;;;;;;7.43;3.27;;;;;;;;;;3590996;40;20039;-62
2021/07/18 10:07:48;;;;;;;8.80;3.67;;;;;;;;;;3590278;40;20624;-62
2021/07/18 10:10:13;;;;;;;13.30;4.73;;;;;;;;;;3590645;40;20024;-62
2021/07/18 10:12:39;;;;;;;7.10;2.07;;;;;;;;;;3591066;40;20077;-62
2021/07/18 10:15:04;;;;;;;4.67;1.43;;;;;;;;;;3590923;40;20036;-62
2021/07/18 10:17:29;;;;;;;3.77;1.40;;;;;;;;;;3590568;40;20036;-62
2021/07/18 10:19:54;;;;;;;10.33;1.90;;;;;;;;;;3590282;39;20036;-62
2021/07/18 10:22:20;;;;;;;5.43;1.43;;;;;;;;;;3591039;40;20082;-62
2021/07/18 10:24:45;;;;;;;6.53;0.93;;;;;;;;;;3590074;40;20375;-62
2021/07/18 10:27:10;;;;;;;5.17;1.30;;;;;;;;;;3591245;40;20054;-61
2021/07/18 10:29:35;;;;;;;5.73;1.30;;;;;;;;;;3591409;40;20024;-62
2021/07/18 10:32:00;;;;;;;4.20;1.40;;;;;;;;;;3580172;40;20039;-62
2021/07/18 10:34:25;;;;;;;4.07;1.70;;;;;;;;;;3590875;40;20055;-62
2021/07/18 10:36:51;;;;;;;6.23;1.40;;;;;;;;;;3590405;40;20412;-62
2021/07/18 10:39:16;;;;;;;2.37;1.43;;;;;;;;;;3590554;40;20090;-62
2021/07/18 10:41:44;;;;;;;6.93;1.70;;;;;;;;;;3591612;40;20051;-62
2021/07/18 10:44:09;;;;;;;7.25;1.40;;;;;;;;;;3591312;40;20035;-62
2021/07/18 10:46:34;;;;;;;2.87;1.10;;;;;;;;;;3591213;40;20036;-62
2021/07/18 10:49:00;;;;;;;5.60;1.20;;;;;;;;;;3591830;40;20431;-62
2021/07/18 10:51:25;;;;;;;5.03;1.40;;;;;;;;;;3590316;40;20040;-62
2021/07/18 10:53:50;;;;;;;5.13;1.33;;;;;;;;;;3591754;40;20024;-62
2021/07/18 10:56:16;;;;;;;3.63;1.10;;;;;;;;;;3591884;39;20161;-62
2021/07/18 10:58:41;;;;;;;6.77;1.10;;;;;;;;;;3582041;40;20043;-62
2021/07/18 11:01:06;;;;;;;4.43;1.00;;;;;;;;;;3590315;40;20581;-62
2021/07/18 11:03:31;;;;;;;2.07;1.63;;;;;;;;;;3592156;40;20121;-62
2021/07/18 11:05:56;;;;;;;7.57;4.00;;;;;;;;;;3592001;40;20476;-62
2021/07/18 11:08:22;;;;;;;8.83;5.03;;;;;;;;;;3589879;40;20410;-62
2021/07/18 11:10:47;;;;;;;4.93;1.33;;;;;;;;;;3591028;40;20035;-59
2021/07/18 11:13:12;;;;;;;6.43;1.30;;;;;;;;;;3590821;40;20047;-60
2021/07/18 11:15:37;;;;;;;5.63;1.30;;;;;;;;;;3590959;40;20031;-60
2021/07/18 11:18:02;;;;;;;4.30;1.27;;;;;;;;;;3590951;40;20732;-60
2021/07/18 11:20:28;;;;;;;3.50;0.80;;;;;;;;;;3590980;40;20611;-60
2021/07/18 11:22:53;;;;;;;5.33;0.90;;;;;;;;;;3591734;40;20301;-60
2021/07/18 11:25:18;;;;;;;3.55;1.00;;;;;;;;;;3590760;40;20020;-60
2021/07/18 11:27:44;;;;;;;6.30;1.10;;;;;;;;;;3590166;40;20029;-60
2021/07/18 11:30:09;;;;;;;6.90;1.20;;;;;;;;;;3591318;39;20039;-60
2021/07/18 11:32:34;;;;;;;1.63;1.17;;;;;;;;;;3591280;40;20024;-60
2021/07/18 11:34:59;;;;;;;5.43;1.30;;;;;;;;;;3591184;39;20048;-60
2021/07/18 11:37:25;;;;;;;3.80;1.27;;;;;;;;;;3591631;40;20040;-60
2021/07/18 11:39:50;;;;;;;2.60;1.10;;;;;;;;;;3590145;40;20724;-60
2021/07/18 11:42:15;;;;;;;3.83;1.37;;;;;;;;;;3591065;40;20611;-60
2021/07/18 11:44:40;;;;;;;5.30;1.40;;;;;;;;;;3591240;40;20109;-60
2021/07/18 11:47:07;;;;;;;2.83;1.40;;;;;;;;;;3590263;40;20102;-60
2021/07/18 11:49:33;;;;;;;1.92;1.05;;;;;;;;;;3591090;39;20396;-60
2021/07/18 11:51:58;;;;;;;2.25;1.05;;;;;;;;;;3590963;39;20028;-60
2021/07/18 11:54:23;;;;;;;8.50;1.20;;;;;;;;;;3589009;40;20028;-60
2021/07/18 11:56:50;;;;;;;4.20;1.00;;;;;;;;;;3591062;40;20031;-61
2021/07/18 11:59:15;;;;;;;9.40;2.00;;;;;;;;;;3590531;40;20038;-60
2021/07/18 12:01:41;;;;;;;6.10;1.50;;;;;;;;;;3590730;40;20036;-60
2021/07/18 12:04:07;;;;;;;1.53;1.00;;;;;;;;;;3590984;40;20409;-60
2021/07/18 12:06:32;;;;;;;3.67;0.90;;;;;;;;;;3591146;39;20117;-60
2021/07/18 12:08:57;;;;;;;8.40;0.98;;;;;;;;;;3590745;40;20085;-60
2021/07/18 12:11:23;;;;;;;5.40;0.97;;;;;;;;;;3589760;40;20459;-60
2021/07/18 12:13:50;;;;;;;4.30;1.02;;;;;;;;;;3591062;40;20028;-60
2021/07/18 12:16:15;;;;;;;3.83;1.00;;;;;;;;;;3589369;40;20182;-60
2021/07/18 12:18:40;;;;;;;2.63;1.00;;;;;;;;;;3589417;40;20696;-60
2021/07/18 12:21:05;;;;;;;2.80;1.40;;;;;;;;;;3590580;40;20028;-60
2021/07/18 12:23:30;;;;;;;2.83;1.20;;;;;;;;;;3590650;40;20094;-60
2021/07/18 12:25:56;;;;;;;3.67;1.17;;;;;;;;;;3590637;40;20039;-60
2021/07/18 12:28:21;;;;;;;7.70;0.93;;;;;;;;;;3590344;40;20032;-60
2021/07/18 12:30:46;;;;;;;2.10;0.90;;;;;;;;;;3589403;40;20040;-60
2021/07/18 12:33:14;;;;;;;3.37;1.00;;;;;;;;;;3589518;40;20047;-61
2021/07/18 12:35:39;;;;;;;2.17;0.90;;;;;;;;;;3591352;39;20046;-60
2021/07/18 12:38:04;;;;;;;2.77;1.10;;;;;;;;;;3591165;40;20036;-60
2021/07/18 12:40:29;;;;;;;4.40;1.20;;;;;;;;;;3591096;40;20137;-60
2021/07/18 12:42:54;;;;;;;2.37;1.10;;;;;;;;;;3591104;39;20728;-60
2021/07/18 12:45:20;;;;;;;2.93;0.90;;;;;;;;;;3591172;40;20028;-61
2021/07/18 12:47:45;;;;;;;2.60;1.20;;;;;;;;;;3590698;40;20027;-61
2021/07/18 12:50:10;;;;;;;4.63;1.13;;;;;;;;;;3591030;40;20024;-60
2021/07/18 12:52:35;;;;;;;3.63;0.90;;;;;;;;;;3590765;39;20095;-60
2021/07/18 12:55:01;;;;;;;4.57;1.10;;;;;;;;;;3591071;40;20313;-61
2021/07/18 12:57:26;;;;;;;5.60;1.10;;;;;;;;;;3590739;40;20035;-61
2021/07/18 12:59:51;;;;;;;4.57;1.17;;;;;;;;;;3590709;40;20027;-61
2021/07/18 13:02:16;;;;;;;5.90;0.97;;;;;;;;;;3591235;40;20024;-61
2021/07/18 13:04:41;;;;;;;4.70;1.10;;;;;;;;;;3591151;40;20039;-61
2021/07/18 13:07:07;;;;;;;2.43;1.10;;;;;;;;;;3589652;40;20394;-61
2021/07/18 13:09:32;;;;;;;3.87;0.90;;;;;;;;;;3590871;40;20312;-60
2021/07/18 13:11:57;;;;;;;11.23;1.40;;;;;;;;;;3591193;40;20289;-61
2021/07/18 13:14:23;;;;;;;4.70;1.00;;;;;;;;;;3590860;40;20035;-61
2021/07/18 13:16:48;;;;;;;5.13;0.90;;;;;;;;;;3590649;39;20040;-61
2021/07/18 13:19:13;;;;;;;3.47;0.97;;;;;;;;;;3591117;40;20292;-61
2021/07/18 13:21:38;;;;;;;1.80;0.70;;;;;;;;;;3590704;40;20040;-61
2021/07/18 13:24:04;;;;;;;1.50;0.90;;;;;;;;;;3590253;40;20421;-61
2021/07/18 13:26:29;;;;;;;4.20;1.20;;;;;;;;;;3589445;40;20037;-61
2021/07/18 13:28:54;;;;;;;5.32;0.90;;;;;;;;;;3589025;40;20056;-61
2021/07/18 13:31:20;;;;;;;4.43;1.07;;;;;;;;;;3589387;40;20032;-61
2021/07/18 13:33:45;;;;;;;2.53;0.97;;;;;;;;;;3589714;40;20036;-61
2021/07/18 13:36:10;;;;;;;3.63;0.90;;;;;;;;;;3589957;40;20032;-61
2021/07/18 13:38:36;;;;;;;6.97;1.10;;;;;;;;;;3590437;40;20032;-61
2021/07/18 13:41:01;;;;;;;4.22;1.10;;;;;;;;;;3590613;39;20040;-61
2021/07/18 13:43:26;;;;;;;3.37;1.13;;;;;;;;;;3589715;40;20227;-61
2021/07/18 13:45:52;;;;;;;2.57;0.80;;;;;;;;;;3590449;40;20028;-61
2021/07/18 13:48:17;;;;;;;3.30;1.10;;;;;;;;;;3589867;40;20608;-62
2021/07/18 13:50:42;;;;;;;6.13;1.43;;;;;;;;;;3589811;39;20121;-61
2021/07/18 13:53:08;;;;;;;6.83;0.97;;;;;;;;;;3590230;39;20040;-61
2021/07/18 13:55:34;;;;;;;4.27;0.87;;;;;;;;;;3591506;40;20036;-61
2021/07/18 13:57:59;;;;;;;4.55;1.00;;;;;;;;;;3592047;39;20040;-61
2021/07/18 14:00:24;;;;;;;1.73;0.83;;;;;;;;;;3590553;40;20292;-67
2021/07/18 14:02:49;;;;;;;3.40;1.07;;;;;;;;;;3592367;40;20031;-67
2021/07/18 14:05:14;;;;;;;2.17;0.80;;;;;;;;;;3592117;39;20020;-69
2021/07/18 14:07:40;;;;;;;10.73;2.30;;;;;;;;;;3591345;40;20035;-69
2021/07/18 14:10:05;;;;;;;4.70;0.80;;;;;;;;;;3591389;40;20163;-68
2021/07/18 14:12:30;;;;;;;2.80;0.83;;;;;;;;;;3591246;40;20017;-68
2021/07/18 14:14:55;;;;;;;7.73;1.00;;;;;;;;;;3590049;40;20052;-68
2021/07/18 14:17:21;;;;;;;2.73;1.10;;;;;;;;;;3589895;40;20825;-68
2021/07/18 14:19:46;;;;;;;19.87;1.33;;;;;;;;;;3591354;40;20024;-68
2021/07/18 14:22:11;;;;;;;6.83;1.07;;;;;;;;;;3590847;40;20016;-68
2021/07/18 14:24:36;;;;;;;2.07;0.90;;;;;;;;;;3591105;40;20316;-67
2021/07/18 14:27:02;;;;;;;1.60;1.00;;;;;;;;;;3591029;39;20079;-68
2021/07/18 14:29:27;;;;;;;3.37;1.03;;;;;;;;;;3591502;40;20028;-68